sensor_id;sensor_type;location;lat;lon;timestamp;pressure;altitude;pressure_sealevel;temperature;humidity
21902;BME280;11115;46.038;14.612;2023-03-25T00:02:09;97838.00;;;13.54;100.00
21902;BME280;11115;46.038;14.612;2023-03-25T00:04:53;97836.69;;;13.40;100.00
21902;BME280;11115;46.038;14.612;2023-03-25T00:07:21;97840.28;;;13.40;100.00
21902;BME280;11115;46.038;14.612;2023-03-25T00:09:53;97837.63;;;13.44;100.00
21902;BME280;11115;46.038;14.612;2023-03-25T00:12:23;97842.00;;;13.32;100.00
21902;BME280;11115;46.038;14.612;2023-03-25T00:15:08;97830.53;;;13.34;100.00
21902;BME280;11115;46.038;14.612;2023-03-25T00:18:04;97832.53;;;13.46;100.00
21902;BME280;11115;46.038;14.612;2023-03-25T00:20:40;97835.78;;;13.48;100.00
21902;BME280;11115;46.038;14.612;2023-03-25T00:23:12;97820.59;;;13.45;100.00
21902;BME280;11115;46.038;14.612;2023-03-25T00:25:40;97810.75;;;13.48;100.00
21902;BME280;11115;46.038;14.612;2023-03-25T00:28:11;97803.59;;;13.47;100.00
21902;BME280;11115;46.038;14.612;2023-03-25T00:30:45;97796.88;;;13.48;100.00
21902;BME280;11115;46.038;14.612;2023-03-25T00:33:19;97805.22;;;13.48;100.00
21902;BME280;11115;46.038;14.612;2023-03-25T00:35:51;97805.69;;;13.50;100.00
21902;BME280;11115;46.038;14.612;2023-03-25T00:38:31;97804.53;;;13.51;100.00
21902;BME280;11115;46.038;14.612;2023-03-25T00:41:32;97799.00;;;13.51;100.00
21902;BME280;11115;46.038;14.612;2023-03-25T00:44:03;97799.78;;;13.51;100.00
21902;BME280;11115;46.038;14.612;2023-03-25T00:46:41;97806.81;;;13.49;100.00
21902;BME280;11115;46.038;14.612;2023-03-25T00:49:09;97800.16;;;13.50;100.00
21902;BME280;11115;46.038;14.612;2023-03-25T00:51:48;97789.94;;;13.42;100.00
21902;BME280;11115;46.038;14.612;2023-03-25T00:54:22;97779.16;;;13.40;100.00
21902;BME280;11115;46.038;14.612;2023-03-25T00:56:53;97792.81;;;13.45;100.00
21902;BME280;11115;46.038;14.612;2023-03-25T00:59:26;97789.00;;;13.38;100.00
21902;BME280;11115;46.038;14.612;2023-03-25T01:01:59;97785.88;;;13.39;100.00
21902;BME280;11115;46.038;14.612;2023-03-25T01:04:35;97785.19;;;13.42;100.00
21902;BME280;11115;46.038;14.612;2023-03-25T01:07:10;97786.31;;;13.29;100.00
21902;BME280;11115;46.038;14.612;2023-03-25T01:09:48;97786.31;;;13.29;100.00
21902;BME280;11115;46.038;14.612;2023-03-25T01:12:20;97792.16;;;13.15;100.00
21902;BME280;11115;46.038;14.612;2023-03-25T01:14:52;97791.88;;;13.08;100.00
21902;BME280;11115;46.038;14.612;2023-03-25T01:17:30;97790.59;;;13.05;100.00
21902;BME280;11115;46.038;14.612;2023-03-25T01:20:10;97780.75;;;12.96;100.00
21902;BME280;11115;46.038;14.612;2023-03-25T01:22:39;97781.28;;;12.89;100.00
21902;BME280;11115;46.038;14.612;2023-03-25T01:25:25;97775.00;;;12.80;100.00
21902;BME280;11115;46.038;14.612;2023-03-25T01:27:58;97775.47;;;12.82;100.00
21902;BME280;11115;46.038;14.612;2023-03-25T01:30:30;97773.88;;;12.81;100.00
21902;BME280;11115;46.038;14.612;2023-03-25T01:32:59;97767.88;;;12.91;100.00
21902;BME280;11115;46.038;14.612;2023-03-25T01:35:41;97764.50;;;12.86;100.00
21902;BME280;11115;46.038;14.612;2023-03-25T01:38:11;97767.06;;;12.58;100.00
21902;BME280;11115;46.038;14.612;2023-03-25T01:40:45;97778.34;;;12.73;100.00
21902;BME280;11115;46.038;14.612;2023-03-25T01:43:18;97781.28;;;12.56;100.00
21902;BME280;11115;46.038;14.612;2023-03-25T01:45:52;97779.91;;;12.41;100.00
21902;BME280;11115;46.038;14.612;2023-03-25T01:48:41;97788.84;;;12.47;100.00
21902;BME280;11115;46.038;14.612;2023-03-25T01:51:24;97780.47;;;12.35;100.00
21902;BME280;11115;46.038;14.612;2023-03-25T01:53:58;97772.94;;;12.35;100.00
21902;BME280;11115;46.038;14.612;2023-03-25T01:56:49;97768.88;;;12.33;100.00
21902;BME280;11115;46.038;14.612;2023-03-25T01:59:23;97767.25;;;12.32;100.00
21902;BME280;11115;46.038;14.612;2023-03-25T02:02:04;97773.91;;;12.10;100.00
21902;BME280;11115;46.038;14.612;2023-03-25T02:04:58;97768.09;;;12.03;100.00
21902;BME280;11115;46.038;14.612;2023-03-25T02:07:39;97762.69;;;12.06;100.00
21902;BME280;11115;46.038;14.612;2023-03-25T02:10:15;97767.78;;;12.04;100.00
21902;BME280;11115;46.038;14.612;2023-03-25T02:12:45;97746.88;;;11.77;100.00
21902;BME280;11115;46.038;14.612;2023-03-25T02:15:21;97763.19;;;11.79;100.00
21902;BME280;11115;46.038;14.612;2023-03-25T02:18:23;97758.03;;;11.98;100.00
21902;BME280;11115;46.038;14.612;2023-03-25T02:24:31;97754.84;;;12.08;100.00
21902;BME280;11115;46.038;14.612;2023-03-25T02:27:14;97730.50;;;11.93;100.00
21902;BME280;11115;46.038;14.612;2023-03-25T02:38:51;97762.94;;;11.93;100.00
21902;BME280;11115;46.038;14.612;2023-03-25T02:45:53;97771.25;;;11.93;100.00
21902;BME280;11115;46.038;14.612;2023-03-25T02:48:10;97763.41;;;11.95;100.00
21902;BME280;11115;46.038;14.612;2023-03-25T02:51:11;97767.97;;;11.99;100.00
21902;BME280;11115;46.038;14.612;2023-03-25T02:53:48;97763.41;;;11.95;100.00
21902;BME280;11115;46.038;14.612;2023-03-25T02:56:22;97769.34;;;11.84;100.00
21902;BME280;11115;46.038;14.612;2023-03-25T02:58:55;97766.91;;;11.74;100.00
21902;BME280;11115;46.038;14.612;2023-03-25T03:01:34;97765.78;;;11.75;100.00
21902;BME280;11115;46.038;14.612;2023-03-25T03:04:02;97771.66;;;11.82;100.00
21902;BME280;11115;46.038;14.612;2023-03-25T03:06:38;97775.97;;;11.63;100.00
21902;BME280;11115;46.038;14.612;2023-03-25T03:09:41;97772.63;;;11.78;100.00
21902;BME280;11115;46.038;14.612;2023-03-25T03:22:44;97765.97;;;11.79;100.00
21902;BME280;11115;46.038;14.612;2023-03-25T03:25:38;97776.44;;;11.65;100.00
21902;BME280;11115;46.038;14.612;2023-03-25T03:34:32;97767.59;;;11.33;100.00
21902;BME280;11115;46.038;14.612;2023-03-25T03:37:24;97747.44;;;11.24;100.00
21902;BME280;11115;46.038;14.612;2023-03-25T03:40:02;97774.94;;;11.29;100.00
21902;BME280;11115;46.038;14.612;2023-03-25T03:42:54;97777.16;;;11.44;100.00
21902;BME280;11115;46.038;14.612;2023-03-25T03:45:40;97778.66;;;11.33;100.00
21902;BME280;11115;46.038;14.612;2023-03-25T03:48:24;97774.19;;;11.58;100.00
21902;BME280;11115;46.038;14.612;2023-03-25T03:51:29;97762.72;;;11.68;100.00
21902;BME280;11115;46.038;14.612;2023-03-25T03:54:17;97765.28;;;11.73;100.00
21902;BME280;11115;46.038;14.612;2023-03-25T03:57:23;97764.53;;;11.64;100.00
21902;BME280;11115;46.038;14.612;2023-03-25T04:02:54;97773.59;;;11.73;100.00
21902;BME280;11115;46.038;14.612;2023-03-25T04:05:31;97782.25;;;11.80;100.00
21902;BME280;11115;46.038;14.612;2023-03-25T04:08:20;97781.59;;;11.75;100.00
21902;BME280;11115;46.038;14.612;2023-03-25T04:11:01;97789.09;;;11.74;100.00
21902;BME280;11115;46.038;14.612;2023-03-25T04:13:42;97784.06;;;11.68;100.00
21902;BME280;11115;46.038;14.612;2023-03-25T04:16:14;97783.41;;;11.71;100.00
21902;BME280;11115;46.038;14.612;2023-03-25T04:18:45;97793.88;;;11.65;100.00
21902;BME280;11115;46.038;14.612;2023-03-25T04:21:21;97786.91;;;11.50;100.00
21902;BME280;11115;46.038;14.612;2023-03-25T04:24:00;97799.19;;;11.32;100.00
21902;BME280;11115;46.038;14.612;2023-03-25T04:26:28;97790.25;;;11.27;100.00
21902;BME280;11115;46.038;14.612;2023-03-25T04:29:00;97804.44;;;11.25;100.00
21902;BME280;11115;46.038;14.612;2023-03-25T04:31:30;97808.50;;;11.28;100.00
21902;BME280;11115;46.038;14.612;2023-03-25T04:34:04;97800.38;;;11.22;100.00
21902;BME280;11115;46.038;14.612;2023-03-25T04:36:33;97799.53;;;11.31;100.00
21902;BME280;11115;46.038;14.612;2023-03-25T04:39:04;97817.19;;;11.55;100.00
21902;BME280;11115;46.038;14.612;2023-03-25T04:41:33;97800.94;;;11.45;100.00
21902;BME280;11115;46.038;14.612;2023-03-25T04:44:05;97808.06;;;11.55;100.00
21902;BME280;11115;46.038;14.612;2023-03-25T04:46:36;97812.22;;;11.40;100.00
21902;BME280;11115;46.038;14.612;2023-03-25T04:49:15;97806.31;;;11.50;100.00
21902;BME280;11115;46.038;14.612;2023-03-25T04:51:46;97807.72;;;11.56;100.00
21902;BME280;11115;46.038;14.612;2023-03-25T04:54:33;97810.50;;;11.56;100.00
21902;BME280;11115;46.038;14.612;2023-03-25T04:57:03;97816.03;;;11.65;100.00
21902;BME280;11115;46.038;14.612;2023-03-25T04:59:38;97807.03;;;11.68;100.00
21902;BME280;11115;46.038;14.612;2023-03-25T05:02:12;97813.44;;;11.60;100.00
21902;BME280;11115;46.038;14.612;2023-03-25T05:04:40;97804.16;;;11.56;100.00
21902;BME280;11115;46.038;14.612;2023-03-25T05:07:16;97824.06;;;11.58;100.00
21902;BME280;11115;46.038;14.612;2023-03-25T05:10:01;97828.16;;;11.43;100.00
21902;BME280;11115;46.038;14.612;2023-03-25T05:12:32;97841.63;;;11.53;100.00
21902;BME280;11115;46.038;14.612;2023-03-25T05:15:11;97841.50;;;11.50;100.00
21902;BME280;11115;46.038;14.612;2023-03-25T05:17:47;97846.63;;;11.22;100.00
21902;BME280;11115;46.038;14.612;2023-03-25T05:20:19;97858.16;;;11.41;100.00
21902;BME280;11115;46.038;14.612;2023-03-25T05:22:52;97858.81;;;11.38;100.00
21902;BME280;11115;46.038;14.612;2023-03-25T05:25:28;97852.34;;;11.08;100.00
21902;BME280;11115;46.038;14.612;2023-03-25T05:27:59;97862.63;;;10.99;100.00
21902;BME280;11115;46.038;14.612;2023-03-25T05:30:33;97867.13;;;11.12;100.00
21902;BME280;11115;46.038;14.612;2023-03-25T05:33:05;97866.97;;;11.17;100.00
21902;BME280;11115;46.038;14.612;2023-03-25T05:35:38;97857.22;;;11.11;100.00
21902;BME280;11115;46.038;14.612;2023-03-25T05:38:11;97881.25;;;11.45;100.00
21902;BME280;11115;46.038;14.612;2023-03-25T05:40:48;97883.50;;;11.61;100.00
21902;BME280;11115;46.038;14.612;2023-03-25T05:43:17;97864.03;;;11.14;100.00
21902;BME280;11115;46.038;14.612;2023-03-25T05:45:53;97896.44;;;11.13;100.00
21902;BME280;11115;46.038;14.612;2023-03-25T05:48:24;97896.94;;;11.15;100.00
21902;BME280;11115;46.038;14.612;2023-03-25T05:51:10;97876.13;;;11.01;100.00
21902;BME280;11115;46.038;14.612;2023-03-25T05:53:56;97900.84;;;11.14;100.00
21902;BME280;11115;46.038;14.612;2023-03-25T05:56:35;97898.56;;;11.08;100.00
21902;BME280;11115;46.038;14.612;2023-03-25T05:59:06;97908.84;;;11.07;100.00
21902;BME280;11115;46.038;14.612;2023-03-25T06:01:44;97909.50;;;11.04;100.00
21902;BME280;11115;46.038;14.612;2023-03-25T06:04:16;97914.69;;;10.97;100.00
21902;BME280;11115;46.038;14.612;2023-03-25T06:06:47;97920.22;;;11.06;100.00
21902;BME280;11115;46.038;14.612;2023-03-25T06:09:17;97909.00;;;11.02;100.00
21902;BME280;11115;46.038;14.612;2023-03-25T06:11:47;97919.09;;;11.07;100.00
21902;BME280;11115;46.038;14.612;2023-03-25T06:14:29;97908.50;;;10.91;100.00
21902;BME280;11115;46.038;14.612;2023-03-25T06:17:00;97861.78;;;10.64;100.00
21902;BME280;11115;46.038;14.612;2023-03-25T06:19:31;97931.31;;;11.06;100.00
21902;BME280;11115;46.038;14.612;2023-03-25T06:22:06;97900.53;;;10.90;100.00
21902;BME280;11115;46.038;14.612;2023-03-25T06:24:38;97934.53;;;11.16;100.00
21902;BME280;11115;46.038;14.612;2023-03-25T06:27:13;97942.06;;;11.07;100.00
21902;BME280;11115;46.038;14.612;2023-03-25T06:29:52;97930.97;;;10.99;100.00
21902;BME280;11115;46.038;14.612;2023-03-25T06:32:28;97929.19;;;11.03;100.00
21902;BME280;11115;46.038;14.612;2023-03-25T06:35:17;97953.78;;;11.04;100.00
21902;BME280;11115;46.038;14.612;2023-03-25T06:37:48;97957.34;;;11.13;100.00
21902;BME280;11115;46.038;14.612;2023-03-25T06:40:43;97966.81;;;11.04;100.00
21902;BME280;11115;46.038;14.612;2023-03-25T06:43:15;97962.41;;;11.03;100.00
21902;BME280;11115;46.038;14.612;2023-03-25T06:45:44;97971.03;;;11.01;100.00
21902;BME280;11115;46.038;14.612;2023-03-25T06:48:23;97970.19;;;10.83;100.00
21902;BME280;11115;46.038;14.612;2023-03-25T06:51:04;97975.91;;;10.95;100.00
21902;BME280;11115;46.038;14.612;2023-03-25T06:53:32;97983.53;;;10.99;100.00
21902;BME280;11115;46.038;14.612;2023-03-25T06:56:04;97993.81;;;10.81;100.00
21902;BME280;11115;46.038;14.612;2023-03-25T06:58:32;97990.84;;;10.77;100.00
21902;BME280;11115;46.038;14.612;2023-03-25T07:01:23;97999.16;;;10.86;100.00
21902;BME280;11115;46.038;14.612;2023-03-25T07:03:56;97988.88;;;10.78;100.00
21902;BME280;11115;46.038;14.612;2023-03-25T07:06:32;98006.94;;;10.75;100.00
21902;BME280;11115;46.038;14.612;2023-03-25T07:09:04;98000.09;;;10.73;100.00
21902;BME280;11115;46.038;14.612;2023-03-25T07:11:35;98004.97;;;10.67;100.00
21902;BME280;11115;46.038;14.612;2023-03-25T07:14:08;98008.28;;;10.86;100.00
21902;BME280;11115;46.038;14.612;2023-03-25T07:16:36;97998.81;;;10.79;100.00
21902;BME280;11115;46.038;14.612;2023-03-25T07:19:06;97975.03;;;10.78;100.00
21902;BME280;11115;46.038;14.612;2023-03-25T07:21:39;98001.91;;;10.77;100.00
21902;BME280;11115;46.038;14.612;2023-03-25T07:24:16;98011.50;;;10.71;100.00
21902;BME280;11115;46.038;14.612;2023-03-25T07:26:55;98027.44;;;10.74;100.00
21902;BME280;11115;46.038;14.612;2023-03-25T07:29:43;98041.25;;;10.66;100.00
21902;BME280;11115;46.038;14.612;2023-03-25T07:32:17;98045.63;;;10.58;100.00
21902;BME280;11115;46.038;14.612;2023-03-25T07:34:48;98022.34;;;10.59;100.00
21902;BME280;11115;46.038;14.612;2023-03-25T07:37:40;98007.53;;;10.55;100.00
21902;BME280;11115;46.038;14.612;2023-03-25T07:40:12;98013.38;;;10.53;100.00
21902;BME280;11115;46.038;14.612;2023-03-25T07:42:44;98023.81;;;10.56;100.00
21902;BME280;11115;46.038;14.612;2023-03-25T07:45:55;98029.03;;;10.58;100.00
21902;BME280;11115;46.038;14.612;2023-03-25T07:48:27;98039.88;;;10.46;100.00
21902;BME280;11115;46.038;14.612;2023-03-25T07:51:09;98045.00;;;10.30;100.00
21902;BME280;11115;46.038;14.612;2023-03-25T07:53:45;98052.03;;;10.36;100.00
21902;BME280;11115;46.038;14.612;2023-03-25T07:56:14;98054.94;;;10.31;100.00
21902;BME280;11115;46.038;14.612;2023-03-25T07:58:46;98051.50;;;10.25;100.00
21902;BME280;11115;46.038;14.612;2023-03-25T08:01:30;98033.66;;;10.09;100.00
21902;BME280;11115;46.038;14.612;2023-03-25T08:04:03;98038.53;;;10.12;100.00
21902;BME280;11115;46.038;14.612;2023-03-25T08:06:36;98041.38;;;9.98;100.00
21902;BME280;11115;46.038;14.612;2023-03-25T08:09:07;98058.06;;;9.85;100.00
21902;BME280;11115;46.038;14.612;2023-03-25T08:11:43;98068.66;;;9.91;100.00
21902;BME280;11115;46.038;14.612;2023-03-25T08:14:12;98054.88;;;10.00;100.00
21902;BME280;11115;46.038;14.612;2023-03-25T08:16:40;98061.69;;;9.94;100.00
21902;BME280;11115;46.038;14.612;2023-03-25T08:19:23;98043.97;;;9.72;100.00
21902;BME280;11115;46.038;14.612;2023-03-25T08:21:59;98049.56;;;9.81;100.00
21902;BME280;11115;46.038;14.612;2023-03-25T08:24:30;98049.06;;;9.79;100.00
21902;BME280;11115;46.038;14.612;2023-03-25T08:27:03;98058.66;;;9.82;100.00
21902;BME280;11115;46.038;14.612;2023-03-25T08:29:43;98079.75;;;9.78;100.00
21902;BME280;11115;46.038;14.612;2023-03-25T08:32:14;98068.88;;;9.81;100.00
21902;BME280;11115;46.038;14.612;2023-03-25T08:34:44;98045.44;;;9.70;100.00
21902;BME280;11115;46.038;14.612;2023-03-25T08:37:14;98035.00;;;9.67;100.00
21902;BME280;11115;46.038;14.612;2023-03-25T08:39:50;98041.22;;;9.50;100.00
21902;BME280;11115;46.038;14.612;2023-03-25T08:42:40;98059.06;;;9.66;100.00
21902;BME280;11115;46.038;14.612;2023-03-25T08:45:11;98071.34;;;9.60;100.00
21902;BME280;11115;46.038;14.612;2023-03-25T08:47:45;98067.66;;;9.65;100.00
21902;BME280;11115;46.038;14.612;2023-03-25T08:50:15;98082.88;;;9.62;100.00
21902;BME280;11115;46.038;14.612;2023-03-25T08:53:00;98094.19;;;9.52;100.00
21902;BME280;11115;46.038;14.612;2023-03-25T08:55:35;98094.97;;;9.66;100.00
21902;BME280;11115;46.038;14.612;2023-03-25T08:58:04;98069.06;;;9.62;100.00
21902;BME280;11115;46.038;14.612;2023-03-25T09:00:36;98072.03;;;9.66;100.00
21902;BME280;11115;46.038;14.612;2023-03-25T09:03:04;98082.13;;;9.48;100.00
21902;BME280;11115;46.038;14.612;2023-03-25T09:05:36;98083.13;;;9.52;100.00
21902;BME280;11115;46.038;14.612;2023-03-25T09:08:07;98081.50;;;9.51;100.00
21902;BME280;11115;46.038;14.612;2023-03-25T09:10:38;98094.97;;;9.66;100.00
21902;BME280;11115;46.038;14.612;2023-03-25T09:13:13;98098.53;;;9.67;100.00
21902;BME280;11115;46.038;14.612;2023-03-25T09:15:44;98089.69;;;9.79;100.00
21902;BME280;11115;46.038;14.612;2023-03-25T09:18:14;98091.50;;;9.83;100.00
21902;BME280;11115;46.038;14.612;2023-03-25T09:20:45;98101.41;;;9.62;100.00
21902;BME280;11115;46.038;14.612;2023-03-25T09:23:20;98117.25;;;9.70;100.00
21902;BME280;11115;46.038;14.612;2023-03-25T09:25:59;98105.03;;;9.49;100.00
21902;BME280;11115;46.038;14.612;2023-03-25T09:28:34;98121.44;;;9.67;100.00
21902;BME280;11115;46.038;14.612;2023-03-25T09:31:06;98127.16;;;9.71;100.00
21902;BME280;11115;46.038;14.612;2023-03-25T09:33:37;98130.22;;;9.69;100.00
21902;BME280;11115;46.038;14.612;2023-03-25T09:36:09;98133.47;;;9.85;100.00
21902;BME280;11115;46.038;14.612;2023-03-25T09:38:40;98127.59;;;9.64;100.00
21902;BME280;11115;46.038;14.612;2023-03-25T09:44:25;98134.13;;;9.68;100.00
21902;BME280;11115;46.038;14.612;2023-03-25T09:47:00;98106.97;;;9.48;100.00
21902;BME280;11115;46.038;14.612;2023-03-25T09:49:39;98122.06;;;9.64;100.00
21902;BME280;11115;46.038;14.612;2023-03-25T09:52:28;98118.22;;;9.52;100.00
21902;BME280;11115;46.038;14.612;2023-03-25T09:55:19;98153.28;;;9.51;100.00
21902;BME280;11115;46.038;14.612;2023-03-25T09:57:56;98155.88;;;9.48;100.00
21902;BME280;11115;46.038;14.612;2023-03-25T10:00:32;98159.44;;;9.34;100.00
21902;BME280;11115;46.038;14.612;2023-03-25T10:06:20;98210.03;;;9.02;100.00
21902;BME280;11115;46.038;14.612;2023-03-25T10:09:24;98212.72;;;8.94;100.00
21902;BME280;11115;46.038;14.612;2023-03-25T10:24:01;98222.94;;;9.21;100.00
21902;BME280;11115;46.038;14.612;2023-03-25T10:26:46;98215.28;;;9.18;100.00
21902;BME280;11115;46.038;14.612;2023-03-25T10:29:21;98217.94;;;9.23;100.00
21902;BME280;11115;46.038;14.612;2023-03-25T10:32:15;98234.56;;;9.04;100.00
21902;BME280;11115;46.038;14.612;2023-03-25T10:34:50;98274.84;;;8.91;100.00
21902;BME280;11115;46.038;14.612;2023-03-25T10:37:25;98293.84;;;8.93;100.00
21902;BME280;11115;46.038;14.612;2023-03-25T10:40:32;98292.44;;;9.09;100.00
21902;BME280;11115;46.038;14.612;2023-03-25T10:43:23;98292.44;;;9.09;100.00
21902;BME280;11115;46.038;14.612;2023-03-25T10:46:30;98303.47;;;9.09;100.00
21902;BME280;11115;46.038;14.612;2023-03-25T10:49:17;98308.91;;;9.14;100.00
21902;BME280;11115;46.038;14.612;2023-03-25T10:51:50;98299.31;;;8.79;100.00
21902;BME280;11115;46.038;14.612;2023-03-25T10:54:21;98268.34;;;8.68;100.00
21902;BME280;11115;46.038;14.612;2023-03-25T10:56:52;98264.88;;;8.76;100.00
21902;BME280;11115;46.038;14.612;2023-03-25T10:59:41;98223.22;;;8.45;100.00
21902;BME280;11115;46.038;14.612;2023-03-25T11:02:21;98220.03;;;8.71;100.00
21902;BME280;11115;46.038;14.612;2023-03-25T11:04:57;98222.44;;;8.59;100.00
21902;BME280;11115;46.038;14.612;2023-03-25T11:08:02;98212.66;;;8.66;100.00
21902;BME280;11115;46.038;14.612;2023-03-25T11:10:49;98203.34;;;8.48;100.00
21902;BME280;11115;46.038;14.612;2023-03-25T11:13:28;98199.97;;;8.51;100.00
21902;BME280;11115;46.038;14.612;2023-03-25T11:16:15;98181.84;;;8.45;100.00
21902;BME280;11115;46.038;14.612;2023-03-25T11:18:50;98180.16;;;8.49;100.00
21902;BME280;11115;46.038;14.612;2023-03-25T11:21:25;98137.44;;;8.47;100.00
21902;BME280;11115;46.038;14.612;2023-03-25T11:24:05;98149.31;;;8.61;100.00
21902;BME280;11115;46.038;14.612;2023-03-25T11:26:37;98156.47;;;8.62;100.00
21902;BME280;11115;46.038;14.612;2023-03-25T11:29:14;98152.72;;;8.72;100.00
21902;BME280;11115;46.038;14.612;2023-03-25T11:32:05;98152.28;;;8.65;100.00
21902;BME280;11115;46.038;14.612;2023-03-25T11:34:36;98169.47;;;8.75;100.00
21902;BME280;11115;46.038;14.612;2023-03-25T11:37:30;98152.22;;;8.70;100.00
21902;BME280;11115;46.038;14.612;2023-03-25T11:40:13;98152.22;;;8.70;100.00
21902;BME280;11115;46.038;14.612;2023-03-25T11:42:55;98162.72;;;8.68;100.00
21902;BME280;11115;46.038;14.612;2023-03-25T11:45:36;98141.16;;;8.56;100.00
21902;BME280;11115;46.038;14.612;2023-03-25T11:48:28;98124.81;;;8.60;100.00
21902;BME280;11115;46.038;14.612;2023-03-25T11:51:11;98111.03;;;8.73;100.00
21902;BME280;11115;46.038;14.612;2023-03-25T11:53:46;98124.94;;;8.68;100.00
21902;BME280;11115;46.038;14.612;2023-03-25T11:56:20;98124.72;;;8.51;100.00
21902;BME280;11115;46.038;14.612;2023-03-25T11:58:57;98123.56;;;8.38;100.00
21902;BME280;11115;46.038;14.612;2023-03-25T12:01:47;98137.66;;;8.37;100.00
21902;BME280;11115;46.038;14.612;2023-03-25T12:04:23;98155.22;;;8.22;100.00
21902;BME280;11115;46.038;14.612;2023-03-25T12:07:14;98128.78;;;8.21;100.00
21902;BME280;11115;46.038;14.612;2023-03-25T12:10:03;98075.59;;;8.39;100.00
21902;BME280;11115;46.038;14.612;2023-03-25T12:12:49;98083.19;;;8.29;100.00
21902;BME280;11115;46.038;14.612;2023-03-25T12:18:34;98165.13;;;8.23;100.00
21902;BME280;11115;46.038;14.612;2023-03-25T12:43:13;98137.75;;;8.45;100.00
21902;BME280;11115;46.038;14.612;2023-03-25T13:00:48;98136.88;;;9.05;100.00
21902;BME280;11115;46.038;14.612;2023-03-25T13:06:42;98098.59;;;11.39;100.00
21902;BME280;11115;46.038;14.612;2023-03-25T13:11:57;98077.22;;;12.35;100.00
21902;BME280;11115;46.038;14.612;2023-03-25T13:20:57;98052.94;;;14.12;100.00
21902;BME280;11115;46.038;14.612;2023-03-25T13:23:41;98048.53;;;14.23;100.00
21902;BME280;11115;46.038;14.612;2023-03-25T13:26:17;98034.19;;;13.26;100.00
21902;BME280;11115;46.038;14.612;2023-03-25T13:28:52;98061.56;;;12.39;100.00
21902;BME280;11115;46.038;14.612;2023-03-25T13:31:30;98057.41;;;11.38;100.00
21902;BME280;11115;46.038;14.612;2023-03-25T13:43:05;98050.78;;;10.90;100.00
21902;BME280;11115;46.038;14.612;2023-03-25T13:46:07;98057.94;;;10.83;100.00
21902;BME280;11115;46.038;14.612;2023-03-25T13:48:51;98062.00;;;10.94;100.00
21902;BME280;11115;46.038;14.612;2023-03-25T13:51:25;98062.16;;;10.89;100.00
21902;BME280;11115;46.038;14.612;2023-03-25T13:54:13;98060.78;;;10.60;100.00
21902;BME280;11115;46.038;14.612;2023-03-25T13:57:22;98068.88;;;10.57;100.00
21902;BME280;11115;46.038;14.612;2023-03-25T14:12:38;98033.59;;;11.19;100.00
21902;BME280;11115;46.038;14.612;2023-03-25T14:15:32;98041.38;;;12.12;100.00
21902;BME280;11115;46.038;14.612;2023-03-25T14:18:15;98023.09;;;12.96;100.00
21902;BME280;11115;46.038;14.612;2023-03-25T14:20:44;98010.69;;;12.94;100.00
21902;BME280;11115;46.038;14.612;2023-03-25T14:23:25;97997.75;;;14.96;100.00
21902;BME280;11115;46.038;14.612;2023-03-25T14:26:03;97996.06;;;16.59;100.00
21902;BME280;11115;46.038;14.612;2023-03-25T14:29:02;97988.78;;;18.14;100.00
21902;BME280;11115;46.038;14.612;2023-03-25T14:31:35;97957.19;;;18.83;100.00
21902;BME280;11115;46.038;14.612;2023-03-25T14:42:23;97966.94;;;20.09;100.00
21902;BME280;11115;46.038;14.612;2023-03-25T14:45:36;97958.19;;;17.83;100.00
21902;BME280;11115;46.038;14.612;2023-03-25T14:48:32;97938.53;;;17.79;100.00
21902;BME280;11115;46.038;14.612;2023-03-25T14:54:20;97945.25;;;17.75;100.00
21902;BME280;11115;46.038;14.612;2023-03-25T14:57:29;97954.91;;;19.75;100.00
21902;BME280;11115;46.038;14.612;2023-03-25T15:00:44;97955.66;;;21.41;92.05
21902;BME280;11115;46.038;14.612;2023-03-25T15:03:20;97962.97;;;21.57;85.76
21902;BME280;11115;46.038;14.612;2023-03-25T15:05:55;97981.13;;;21.04;87.82
21902;BME280;11115;46.038;14.612;2023-03-25T15:08:34;97979.00;;;18.70;96.97
21902;BME280;11115;46.038;14.612;2023-03-25T15:11:09;97964.31;;;21.18;84.69
21902;BME280;11115;46.038;14.612;2023-03-25T15:13:45;97976.59;;;23.41;67.00
21902;BME280;11115;46.038;14.612;2023-03-25T15:16:37;97977.78;;;20.91;70.75
21902;BME280;11115;46.038;14.612;2023-03-25T15:19:18;97984.13;;;19.14;95.97
21902;BME280;11115;46.038;14.612;2023-03-25T15:24:35;97990.94;;;22.01;72.35
21902;BME280;11115;46.038;14.612;2023-03-25T15:33:31;97986.75;;;19.29;78.95
21902;BME280;11115;46.038;14.612;2023-03-25T15:39:29;97983.19;;;17.37;100.00
21902;BME280;11115;46.038;14.612;2023-03-25T15:45:55;97995.84;;;14.39;100.00
21902;BME280;11115;46.038;14.612;2023-03-25T15:54:59;98011.66;;;14.96;100.00
21902;BME280;11115;46.038;14.612;2023-03-25T15:57:41;98025.84;;;13.88;100.00
21902;BME280;11115;46.038;14.612;2023-03-25T16:00:31;98013.94;;;13.67;100.00
21902;BME280;11115;46.038;14.612;2023-03-25T16:03:24;98016.06;;;14.48;100.00
21902;BME280;11115;46.038;14.612;2023-03-25T16:05:58;98014.13;;;15.50;100.00
21902;BME280;11115;46.038;14.612;2023-03-25T16:08:38;98017.44;;;15.03;100.00
21902;BME280;11115;46.038;14.612;2023-03-25T16:11:23;98026.03;;;14.49;100.00
21902;BME280;11115;46.038;14.612;2023-03-25T16:14:10;98027.81;;;13.67;100.00
21902;BME280;11115;46.038;14.612;2023-03-25T16:16:55;98020.97;;;13.23;100.00
21902;BME280;11115;46.038;14.612;2023-03-25T16:19:36;98014.22;;;13.32;100.00
21902;BME280;11115;46.038;14.612;2023-03-25T16:22:18;97997.56;;;13.03;100.00
21902;BME280;11115;46.038;14.612;2023-03-25T16:24:49;97982.66;;;12.57;100.00